Time;durP1;ratioP1;P1;durP2;ratioP2;P2;SDS_P1;SDS_P2;PMS_P1;PMS_P2;Temp;Humidity;BMP_temperature;BMP_pressure;BME280_temperature;BME280_humidity;BME280_pressure;Samples;Min_cycle;Max_cycle;Signal;HPM_P1;HPM_P2
2022/03/01 00:01:43;;;;;;;3.70;2.60;;;;;;;-0.47;60.60;100897.13;109249;1276;22535;-53
2022/03/01 00:04:11;;;;;;;6.60;4.00;;;;;;;-0.50;60.62;100890.48;109235;1274;138784;-53
2022/03/01 00:06:40;;;;;;;5.30;2.90;;;;;;;-0.49;60.92;100895.26;109365;1274;22458;-53
2022/03/01 00:09:08;;;;;;;6.40;3.50;;;;;;;-0.51;60.88;100891.15;109339;1274;22471;-53
2022/03/01 00:11:36;;;;;;;6.00;3.20;;;;;;;-0.52;60.67;100893.35;109238;1274;139140;-52
2022/03/01 00:14:05;;;;;;;8.40;5.10;;;;;;;-0.53;60.80;100891.19;109270;1274;22517;-51
2022/03/01 00:16:47;;;;;;;5.60;3.30;;;;;;;-0.56;61.01;100882.33;109284;1274;138423;-51
2022/03/01 00:19:15;;;;;;;8.10;4.10;;;;;;;-0.56;61.14;100881.98;109253;1274;22565;-51
2022/03/01 00:21:43;;;;;;;6.30;3.50;;;;;;;-0.55;61.22;100877.77;109265;1274;138189;-52
2022/03/01 00:24:11;;;;;;;7.40;4.30;;;;;;;-0.54;61.19;100873.92;109231;1274;23181;-52
2022/03/01 00:26:40;;;;;;;4.80;3.10;;;;;;;-0.54;61.35;100871.24;109329;1274;23381;-52
2022/03/01 00:29:08;;;;;;;6.90;3.80;;;;;;;-0.53;61.28;100867.63;109180;1274;138245;-52
2022/03/01 00:31:36;;;;;;;7.30;3.30;;;;;;;-0.54;61.07;100865.05;109340;1274;22544;-52
2022/03/01 00:34:05;;;;;;;5.90;3.00;;;;;;;-0.54;60.97;100862.20;109270;1274;137513;-52
2022/03/01 00:36:33;;;;;;;5.90;3.40;;;;;;;-0.55;61.26;100868.83;109396;1274;22421;-52
2022/03/01 00:39:01;;;;;;;4.40;2.90;;;;;;;-0.55;61.45;100865.45;109363;1274;22554;-52
2022/03/01 00:44:02;;;;;;;7.60;3.20;;;;;;;-0.56;61.44;100867.16;101787;1312;545026;-51
2022/03/01 00:46:30;;;;;;;6.70;3.10;;;;;;;-0.59;61.60;100870.41;108028;1286;138583;-52
2022/03/01 00:48:59;;;;;;;4.70;2.60;;;;;;;-0.60;61.36;100866.38;107864;1290;22439;-53
2022/03/01 00:51:27;;;;;;;4.90;2.80;;;;;;;-0.62;61.82;100864.92;107837;1289;22540;-52
2022/03/01 00:54:07;;;;;;;8.10;2.90;;;;;;;-0.63;62.03;100868.29;107996;1289;137188;-53
2022/03/01 00:56:36;;;;;;;4.80;2.90;;;;;;;-0.67;61.81;100872.25;107847;1287;256810;-52
2022/03/01 00:59:08;;;;;;;4.50;3.10;;;;;;;-0.71;61.94;100867.96;108157;1286;137008;-53
2022/03/01 01:01:36;;;;;;;5.10;3.00;;;;;;;-0.72;62.04;100866.69;108315;1287;22490;-53
2022/03/01 01:04:04;;;;;;;8.60;3.10;;;;;;;-0.72;62.18;100860.40;108216;1286;137921;-54
2022/03/01 01:06:32;;;;;;;4.10;2.90;;;;;;;-0.72;62.23;100864.88;108295;1285;22493;-52
2022/03/01 01:09:00;;;;;;;6.10;3.10;;;;;;;-0.72;62.39;100868.05;108217;1286;22515;-53
2022/03/01 01:11:28;;;;;;;5.60;3.00;;;;;;;-0.73;62.50;100865.86;108199;1286;137163;-54
2022/03/01 01:13:56;;;;;;;5.90;3.20;;;;;;;-0.73;62.74;100870.88;108262;1286;22493;-53
2022/03/01 01:16:24;;;;;;;6.30;3.30;;;;;;;-0.76;62.82;100864.02;108182;1286;137178;-54
2022/03/01 01:18:54;;;;;;;4.10;2.80;;;;;;;-0.79;62.96;100862.54;108285;1286;22401;-52
2022/03/01 01:21:22;;;;;;;6.20;2.80;;;;;;;-0.81;62.93;100865.09;108285;1285;22352;-52
2022/03/01 01:23:50;;;;;;;6.80;3.20;;;;;;;-0.84;62.91;100870.48;108214;1286;136760;-52
2022/03/01 01:26:18;;;;;;;5.70;3.20;;;;;;;-0.86;63.15;100872.14;108271;1286;22490;-52
2022/03/01 01:28:46;;;;;;;8.20;3.20;;;;;;;-0.89;63.27;100869.47;108166;1285;138390;-52
2022/03/01 01:31:15;;;;;;;4.70;2.70;;;;;;;-0.94;63.11;100872.05;108347;1286;23242;-52
2022/03/01 01:33:43;;;;;;;5.40;3.10;;;;;;;-0.96;63.27;100872.45;108189;1286;137025;-52
2022/03/01 01:36:11;;;;;;;7.90;3.70;;;;;;;-0.97;63.45;100870.80;108261;1286;23608;-51
2022/03/01 01:38:39;;;;;;;6.80;3.20;;;;;;;-0.98;63.54;100871.90;108277;1285;23150;-52
2022/03/01 01:41:11;;;;;;;4.80;3.00;;;;;;;-0.99;63.90;100868.33;108062;1286;137931;-51
2022/03/01 01:43:39;;;;;;;7.30;3.20;;;;;;;-1.02;63.96;100867.86;108138;1287;22479;-51
2022/03/01 01:46:06;;;;;;;6.00;3.10;;;;;;;-1.04;64.21;100864.69;107989;1287;139347;-52
2022/03/01 01:48:35;;;;;;;3.90;2.80;;;;;;;-1.04;64.51;100866.33;108066;1287;22480;-52
2022/03/01 01:51:03;;;;;;;5.30;2.80;;;;;;;-1.06;64.50;100869.48;108095;1287;23566;-52
2022/03/01 01:53:31;;;;;;;6.30;3.00;;;;;;;-1.07;64.92;100870.67;108105;1286;137776;-52
2022/03/01 01:55:59;;;;;;;4.40;3.20;;;;;;;-1.09;64.99;100869.02;108266;1285;22455;-52
2022/03/01 01:58:27;;;;;;;6.10;3.00;;;;;;;-1.10;64.93;100870.36;108199;1286;137357;-52
2022/03/01 02:00:55;;;;;;;5.60;2.90;;;;;;;-1.09;65.10;100870.83;108265;1286;22452;-51
2022/03/01 02:03:25;;;;;;;7.60;2.90;;;;;;;-1.08;65.34;100872.31;108238;1286;22440;-52
2022/03/01 02:05:53;;;;;;;4.90;2.90;;;;;;;-1.08;65.41;100872.14;108161;1286;138046;-52
2022/03/01 02:08:31;;;;;;;5.20;3.30;;;;;;;-1.09;65.73;100876.37;108253;1286;22492;-52
2022/03/01 02:11:00;;;;;;;6.40;3.40;;;;;;;-1.11;66.00;100872.80;108185;1286;137411;-52
2022/03/01 02:13:29;;;;;;;7.40;3.90;;;;;;;-1.15;66.37;100872.31;108252;1286;22253;-52
2022/03/01 02:15:57;;;;;;;8.00;3.80;;;;;;;-1.15;66.86;100868.93;108144;1286;137665;-52
2022/03/01 02:18:26;;;;;;;6.50;3.20;;;;;;;-1.18;67.18;100866.75;108315;1286;22451;-53
2022/03/01 02:20:54;;;;;;;13.30;3.40;;;;;;;-1.21;67.63;100867.04;108243;1286;22557;-53
2022/03/01 02:23:22;;;;;;;5.50;3.30;;;;;;;-1.24;68.45;100870.06;108093;1286;138197;-52
2022/03/01 02:25:50;;;;;;;9.10;3.40;;;;;;;-1.29;69.19;100866.36;108269;1286;22444;-52
2022/03/01 02:28:18;;;;;;;5.80;3.60;;;;;;;-1.32;69.56;100860.71;108141;1286;138497;-53
2022/03/01 02:30:46;;;;;;;6.90;3.60;;;;;;;-1.34;69.98;100868.55;109036;1277;23089;-53
2022/03/01 02:33:14;;;;;;;6.70;3.50;;;;;;;-1.34;70.74;100870.68;108960;1279;22425;-53
2022/03/01 02:35:42;;;;;;;7.50;4.00;;;;;;;-1.38;71.48;100861.55;108846;1278;138573;-52
2022/03/01 02:38:10;;;;;;;6.20;3.70;;;;;;;-1.40;71.82;100861.05;108954;1279;23157;-52
2022/03/01 02:40:39;;;;;;;8.30;4.80;;;;;;;-1.41;72.09;100858.69;108838;1279;138527;-52
2022/03/01 02:43:08;;;;;;;7.10;3.70;;;;;;;-1.42;72.95;100857.88;108946;1279;23195;-52
2022/03/01 02:45:36;;;;;;;8.10;4.30;;;;;;;-1.46;73.52;100855.73;108892;1280;22660;-52
2022/03/01 02:48:04;;;;;;;6.90;3.70;;;;;;;-1.47;74.07;100859.98;108863;1279;137864;-53
2022/03/01 02:50:33;;;;;;;7.30;4.60;;;;;;;-1.48;74.46;100860.95;108935;1278;22418;-52
2022/03/01 02:53:01;;;;;;;7.70;4.10;;;;;;;-1.51;74.92;100861.19;108852;1279;138075;-52
2022/03/01 02:55:29;;;;;;;5.80;3.50;;;;;;;-1.52;75.65;100862.10;108959;1279;22494;-52
2022/03/01 02:57:57;;;;;;;7.30;4.20;;;;;;;-1.55;76.07;100864.86;108817;1280;138030;-52
2022/03/01 03:00:25;;;;;;;7.50;4.00;;;;;;;-1.60;76.58;100859.23;108853;1281;22531;-52
2022/03/01 03:02:54;;;;;;;7.30;3.90;;;;;;;-1.62;76.68;100858.18;108816;1279;23311;-52
2022/03/01 03:05:22;;;;;;;14.30;6.50;;;;;;;-1.60;76.84;100855.39;108810;1278;138456;-52
2022/03/01 03:07:50;;;;;;;6.90;3.70;;;;;;;-1.58;77.33;100848.91;108976;1278;22446;-53
2022/03/01 03:10:18;;;;;;;7.80;4.30;;;;;;;-1.58;77.54;100847.11;108838;1279;137841;-52
2022/03/01 03:12:46;;;;;;;7.60;4.10;;;;;;;-1.59;77.71;100844.55;108985;1278;22458;-52
2022/03/01 03:15:15;;;;;;;8.20;4.40;;;;;;;-1.60;78.04;100848.02;108962;1280;22447;-53
2022/03/01 03:17:45;;;;;;;9.50;4.90;;;;;;;-1.62;78.28;100843.95;108836;1279;138652;-52
2022/03/01 03:20:13;;;;;;;11.70;4.70;;;;;;;-1.67;78.80;100841.57;108967;1279;22409;-53
2022/03/01 03:22:41;;;;;;;7.10;4.40;;;;;;;-1.69;79.05;100845.90;108843;1278;139272;-52
2022/03/01 03:25:10;;;;;;;7.40;4.20;;;;;;;-1.71;79.03;100846.83;108954;1279;22582;-52
2022/03/01 03:27:38;;;;;;;6.30;3.60;;;;;;;-1.72;79.36;100842.98;108975;1279;22452;-52
2022/03/01 03:30:07;;;;;;;7.10;4.20;;;;;;;-1.75;79.52;100838.44;108895;1278;138594;-53
2022/03/01 03:32:40;;;;;;;9.80;4.40;;;;;;;-1.75;79.69;100838.46;109029;1279;22393;-52
2022/03/01 03:35:11;;;;;;;8.50;4.90;;;;;;;-1.74;79.76;100839.23;108754;1280;139684;-52
2022/03/01 03:37:39;;;;;;;6.80;4.10;;;;;;;-1.72;79.77;100835.53;104501;1280;22573;-52
2022/03/01 03:40:08;;;;;;;7.50;4.90;;;;;;;-1.72;80.07;100832.79;108752;1280;138163;-52
2022/03/01 03:42:36;;;;;;;7.40;4.50;;;;;;;-1.73;80.28;100832.73;108996;1277;23352;-52
2022/03/01 03:45:07;;;;;;;6.50;4.10;;;;;;;-1.74;80.24;100826.31;108997;1278;22608;-52
2022/03/01 03:47:35;;;;;;;6.70;3.90;;;;;;;-1.75;80.38;100828.31;108855;1278;138620;-52
2022/03/01 03:50:04;;;;;;;8.00;3.80;;;;;;;-1.78;80.54;100824.85;108987;1278;22661;-52
2022/03/01 03:52:34;;;;;;;6.90;3.80;;;;;;;-1.81;80.65;100824.41;108943;1277;137839;-52
2022/03/01 03:55:05;;;;;;;5.60;3.50;;;;;;;-1.83;80.84;100824.55;108959;1277;22461;-52
2022/03/01 03:57:33;;;;;;;6.80;4.10;;;;;;;-1.84;80.85;100825.70;108983;1278;22466;-53
2022/03/01 04:00:03;;;;;;;8.70;4.00;;;;;;;-1.84;80.79;100820.98;108909;1278;137840;-54
2022/03/01 04:02:32;;;;;;;9.40;3.80;;;;;;;-1.84;81.05;100823.27;108999;1278;23270;-53
2022/03/01 04:05:00;;;;;;;11.90;4.80;;;;;;;-1.84;81.12;100815.12;108889;1278;138009;-52
2022/03/01 04:07:30;;;;;;;7.40;4.10;;;;;;;-1.84;81.40;100813.79;108968;1279;22457;-52
2022/03/01 04:09:59;;;;;;;6.20;3.90;;;;;;;-1.85;81.36;100808.73;108880;1278;138085;-52
2022/03/01 04:12:27;;;;;;;9.00;4.10;;;;;;;-1.84;81.49;100808.87;109299;1276;22506;-52
2022/03/01 04:14:56;;;;;;;7.20;4.50;;;;;;;-1.85;82.43;100806.81;109352;1274;22392;-52
2022/03/01 04:17:25;;;;;;;6.80;3.90;;;;;;;-1.86;82.83;100805.83;109088;1275;138796;-52
2022/03/01 04:19:53;;;;;;;8.40;4.30;;;;;;;-1.86;83.03;100804.77;109172;1277;23203;-52
2022/03/01 04:22:21;;;;;;;5.70;3.70;;;;;;;-1.87;83.19;100799.19;108975;1277;138982;-52
2022/03/01 04:24:49;;;;;;;9.20;4.10;;;;;;;-1.87;83.00;100803.79;109298;1275;22508;-51
2022/03/01 04:27:17;;;;;;;7.50;4.40;;;;;;;-1.88;82.96;100802.48;109341;1275;22416;-51
2022/03/01 04:29:45;;;;;;;5.40;3.70;;;;;;;-1.87;82.79;100798.48;109060;1276;138914;-52
2022/03/01 04:32:13;;;;;;;6.70;3.90;;;;;;;-1.85;82.76;100802.20;109099;1276;22501;-52
2022/03/01 04:34:41;;;;;;;5.10;3.20;;;;;;;-1.85;82.57;100800.37;109089;1276;141217;-51
2022/03/01 04:37:09;;;;;;;6.70;3.70;;;;;;;-1.84;82.66;100799.20;109309;1276;22549;-52
2022/03/01 04:39:37;;;;;;;8.20;4.80;;;;;;;-1.85;82.57;100800.04;109316;1275;22469;-51
2022/03/01 04:42:08;;;;;;;7.60;4.10;;;;;;;-1.86;82.76;100797.48;109220;1276;137701;-51
2022/03/01 04:44:36;;;;;;;7.90;4.10;;;;;;;-1.87;82.80;100801.65;109286;1276;22678;-51
2022/03/01 04:47:08;;;;;;;7.20;4.00;;;;;;;-1.88;82.67;100800.02;109192;1276;139530;-51
2022/03/01 04:49:36;;;;;;;7.20;4.10;;;;;;;-1.88;82.82;100802.86;109285;1275;22452;-52
2022/03/01 04:52:05;;;;;;;7.10;4.10;;;;;;;-1.88;82.88;100801.92;109229;1275;138227;-52
2022/03/01 04:54:33;;;;;;;8.40;3.90;;;;;;;-1.86;82.81;100804.59;109338;1274;22475;-52
2022/03/01 04:57:01;;;;;;;5.20;3.30;;;;;;;-1.86;82.83;100802.59;109291;1275;23132;-52
2022/03/01 04:59:29;;;;;;;7.60;3.80;;;;;;;-1.86;82.76;100807.91;109228;1275;138226;-52
2022/03/01 05:01:57;;;;;;;6.80;4.00;;;;;;;-1.85;82.89;100804.98;109354;1275;22927;-52
2022/03/01 05:04:26;;;;;;;5.80;3.90;;;;;;;-1.84;82.96;100809.38;109228;1274;138398;-52
2022/03/01 05:06:54;;;;;;;6.70;4.20;;;;;;;-1.85;83.23;100807.33;109366;1275;22580;-52
2022/03/01 05:09:22;;;;;;;7.40;3.90;;;;;;;-1.83;83.29;100810.02;109346;1274;22443;-52
2022/03/01 05:11:50;;;;;;;7.10;3.90;;;;;;;-1.81;83.36;100811.59;109139;1275;138750;-52
2022/03/01 05:14:19;;;;;;;5.40;3.30;;;;;;;-1.79;83.46;100816.39;109297;1276;22408;-52
2022/03/01 05:16:47;;;;;;;7.60;3.60;;;;;;;-1.77;83.26;100817.46;109248;1274;138309;-52
2022/03/01 05:19:16;;;;;;;5.10;3.30;;;;;;;-1.76;83.25;100814.54;109324;1275;22539;-51
2022/03/01 05:21:45;;;;;;;5.50;3.40;;;;;;;-1.76;83.28;100815.07;109364;1275;22259;-51
2022/03/01 05:24:14;;;;;;;5.20;3.10;;;;;;;-1.73;83.27;100812.91;109217;1275;137934;-51
2022/03/01 05:26:44;;;;;;;9.30;3.50;;;;;;;-1.72;83.21;100812.02;109283;1275;23296;-51
2022/03/01 05:29:12;;;;;;;7.00;3.90;;;;;;;-1.72;83.25;100810.36;109252;1275;137966;-52
2022/03/01 05:31:40;;;;;;;8.20;3.80;;;;;;;-1.71;83.13;100813.14;109342;1275;22331;-52
2022/03/01 05:34:09;;;;;;;6.10;3.10;;;;;;;-1.72;83.33;100805.19;109230;1275;138389;-52
2022/03/01 05:36:37;;;;;;;6.10;3.50;;;;;;;-1.70;83.17;100803.72;109286;1275;22481;-52
2022/03/01 05:39:05;;;;;;;6.10;3.70;;;;;;;-1.68;83.19;100803.94;109348;1275;22422;-52
2022/03/01 05:41:33;;;;;;;6.20;3.80;;;;;;;-1.66;83.22;100800.92;109178;1275;138485;-53
2022/03/01 05:44:01;;;;;;;8.30;3.50;;;;;;;-1.64;83.30;100796.98;109366;1274;23290;-53
2022/03/01 05:46:29;;;;;;;7.00;3.10;;;;;;;-1.62;83.18;100801.25;109227;1276;138827;-54
2022/03/01 05:48:57;;;;;;;5.80;3.70;;;;;;;-1.61;83.11;100799.00;109408;1275;22469;-52
2022/03/01 05:51:25;;;;;;;8.10;3.90;;;;;;;-1.59;83.01;100792.05;109281;1274;22481;-52
2022/03/01 05:53:54;;;;;;;6.10;3.80;;;;;;;-1.57;83.16;100789.70;109075;1276;140693;-53
2022/03/01 05:56:22;;;;;;;6.60;3.40;;;;;;;-1.57;83.01;100790.88;109309;1275;22221;-53
2022/03/01 05:58:50;;;;;;;6.60;4.40;;;;;;;-1.58;83.01;100785.89;109231;1274;138037;-53
2022/03/01 06:01:18;;;;;;;6.00;3.50;;;;;;;-1.60;83.13;100787.65;109199;1276;22490;-53
2022/03/01 06:03:46;;;;;;;6.90;3.70;;;;;;;-1.61;83.03;100787.58;109341;1274;22426;-53
2022/03/01 06:06:14;;;;;;;6.40;3.70;;;;;;;-1.61;83.21;100785.13;109192;1276;137915;-53
2022/03/01 06:08:53;;;;;;;5.00;3.40;;;;;;;-1.61;83.20;100784.17;109322;1276;23399;-53
2022/03/01 06:11:22;;;;;;;6.80;3.30;;;;;;;-1.58;83.08;100783.70;109054;1277;137978;-53
2022/03/01 06:13:49;;;;;;;6.30;3.90;;;;;;;-1.57;83.39;100776.79;109312;1275;22479;-53
2022/03/01 06:16:18;;;;;;;4.50;3.00;;;;;;;-1.52;83.22;100779.89;109200;1275;138158;-53
2022/03/01 06:18:49;;;;;;;4.40;2.80;;;;;;;-1.47;83.38;100785.34;109124;1277;22674;-52
2022/03/01 06:21:17;;;;;;;4.90;3.30;;;;;;;-1.44;83.47;100785.39;109099;1277;22529;-53
2022/03/01 06:23:46;;;;;;;6.50;3.80;;;;;;;-1.41;83.27;100789.52;109144;1275;139444;-53
2022/03/01 06:26:14;;;;;;;7.10;3.90;;;;;;;-1.40;83.12;100789.27;109334;1275;22443;-53
2022/03/01 06:28:42;;;;;;;5.00;3.20;;;;;;;-1.41;83.23;100793.61;109196;1275;139805;-53
2022/03/01 06:31:10;;;;;;;7.80;3.90;;;;;;;-1.41;83.22;100790.06;109125;1276;22450;-53
2022/03/01 06:33:38;;;;;;;6.50;3.80;;;;;;;-1.40;83.16;100791.58;109137;1277;22464;-53
2022/03/01 06:36:06;;;;;;;6.70;3.40;;;;;;;-1.39;83.29;100791.66;107477;1275;137897;-55
2022/03/01 06:38:34;;;;;;;5.10;3.30;;;;;;;-1.38;83.24;100787.27;105060;1276;22592;-54
2022/03/01 06:41:03;;;;;;;5.50;3.50;;;;;;;-1.36;83.39;100783.15;104877;1277;139894;-54
2022/03/01 06:43:31;;;;;;;7.00;4.20;;;;;;;-1.34;83.47;100783.14;109135;1276;22413;-55
2022/03/01 06:45:59;;;;;;;7.30;3.40;;;;;;;-1.33;83.62;100783.90;109221;1275;139583;-56
2022/03/01 06:48:27;;;;;;;7.80;4.10;;;;;;;-1.33;83.43;100785.70;109329;1274;22572;-54
2022/03/01 06:50:55;;;;;;;6.20;3.70;;;;;;;-1.32;83.36;100787.80;109418;1276;22337;-55
2022/03/01 06:53:23;;;;;;;8.10;5.20;;;;;;;-1.32;83.33;100787.59;109216;1275;139670;-55
2022/03/01 06:55:51;;;;;;;9.90;4.90;;;;;;;-1.33;83.45;100783.76;109305;1275;22490;-55
2022/03/01 06:58:19;;;;;;;6.40;3.90;;;;;;;-1.34;83.29;100786.71;109220;1275;138850;-55
2022/03/01 07:00:47;;;;;;;6.30;4.10;;;;;;;-1.34;83.34;100785.79;109333;1276;22417;-55
2022/03/01 07:03:16;;;;;;;6.40;3.70;;;;;;;-1.33;83.50;100787.84;109316;1275;22492;-55
2022/03/01 07:05:44;;;;;;;6.70;3.70;;;;;;;-1.33;83.24;100787.46;108998;1277;140085;-53
2022/03/01 07:08:13;;;;;;;12.10;4.10;;;;;;;-1.33;83.37;100789.80;109074;1277;22565;-52
2022/03/01 07:10:41;;;;;;;8.80;4.40;;;;;;;-1.36;83.41;100784.39;108995;1277;139181;-53
2022/03/01 07:13:10;;;;;;;7.10;4.50;;;;;;;-1.33;83.71;100783.59;109047;1277;22554;-53
2022/03/01 07:15:38;;;;;;;7.00;4.00;;;;;;;-1.33;83.76;100786.40;109068;1277;22454;-53
2022/03/01 07:18:06;;;;;;;8.00;4.40;;;;;;;-1.32;84.20;100789.21;109052;1277;138015;-52
2022/03/01 07:20:37;;;;;;;6.50;3.90;;;;;;;-1.32;84.31;100789.04;109118;1277;22518;-54
2022/03/01 07:23:05;;;;;;;9.20;4.40;;;;;;;-1.32;84.31;100790.92;109146;1275;138529;-51
2022/03/01 07:25:33;;;;;;;7.20;4.20;;;;;;;-1.35;84.34;100787.01;109325;1275;22419;-52
2022/03/01 07:28:01;;;;;;;7.50;4.20;;;;;;;-1.33;84.12;100788.46;109225;1275;139004;-52
2022/03/01 07:30:29;;;;;;;6.80;4.00;;;;;;;-1.33;84.42;100785.35;109358;1275;23457;-52
2022/03/01 07:32:58;;;;;;;8.20;4.40;;;;;;;-1.31;84.23;100786.59;109296;1275;23285;-52
2022/03/01 07:35:26;;;;;;;7.70;4.60;;;;;;;-1.30;84.00;100782.39;109225;1274;137995;-52
2022/03/01 07:37:54;;;;;;;8.90;5.30;;;;;;;-1.31;83.90;100787.16;109374;1275;22441;-52
2022/03/01 07:40:23;;;;;;;7.20;4.40;;;;;;;-1.34;83.82;100778.55;109215;1276;139141;-52
2022/03/01 07:42:52;;;;;;;9.90;4.80;;;;;;;-1.38;83.76;100777.87;109368;1275;22469;-52
2022/03/01 07:45:20;;;;;;;7.40;4.70;;;;;;;-1.37;83.65;100784.30;109305;1275;22428;-52
2022/03/01 07:47:51;;;;;;;8.40;4.50;;;;;;;-1.35;83.75;100785.09;109199;1276;138058;-52
2022/03/01 07:50:19;;;;;;;6.20;4.10;;;;;;;-1.33;83.75;100793.35;109373;1274;22546;-52
2022/03/01 07:52:51;;;;;;;7.80;5.00;;;;;;;-1.30;83.90;100793.65;109280;1275;138397;-51
2022/03/01 07:55:19;;;;;;;9.30;4.90;;;;;;;-1.28;83.68;100790.77;109322;1275;22436;-51
2022/03/01 07:57:50;;;;;;;8.10;4.60;;;;;;;-1.26;83.83;100791.40;109333;1276;22434;-53
2022/03/01 08:00:19;;;;;;;7.80;4.90;;;;;;;-1.24;83.72;100792.10;109251;1275;140085;-52
2022/03/01 08:02:47;;;;;;;7.50;4.50;;;;;;;-1.22;83.70;100792.42;109345;1274;23243;-52
2022/03/01 08:05:15;;;;;;;9.10;4.80;;;;;;;-1.21;83.54;100790.09;109155;1275;139348;-59
2022/03/01 08:07:49;;;;;;;8.00;5.10;;;;;;;-1.19;83.46;100788.05;109284;1275;22244;-59
2022/03/01 08:10:18;;;;;;;8.80;4.50;;;;;;;-1.17;83.59;100788.17;109207;1274;138883;-60
2022/03/01 08:12:47;;;;;;;7.10;4.20;;;;;;;-1.16;83.31;100793.05;109392;1275;22431;-60
2022/03/01 08:15:15;;;;;;;8.50;5.10;;;;;;;-1.15;83.29;100792.31;109282;1275;23122;-60
2022/03/01 08:17:50;;;;;;;11.20;5.10;;;;;;;-1.16;83.40;100794.13;109066;1276;138429;-61
2022/03/01 08:20:18;;;;;;;8.70;5.30;;;;;;;-1.16;83.33;100793.42;109159;1276;22413;-60
2022/03/01 08:22:46;;;;;;;7.70;4.50;;;;;;;-1.16;83.47;100791.52;109124;1276;138973;-60
2022/03/01 08:25:14;;;;;;;7.80;4.60;;;;;;;-1.15;83.42;100788.91;109340;1275;23277;-60
2022/03/01 08:27:43;;;;;;;8.80;4.80;;;;;;;-1.13;83.48;100783.89;109311;1275;23195;-60
2022/03/01 08:30:11;;;;;;;10.40;6.00;;;;;;;-1.11;83.44;100775.98;109202;1274;137907;-60
2022/03/01 08:32:39;;;;;;;9.30;5.40;;;;;;;-1.07;83.39;100777.58;109359;1274;23454;-60
2022/03/01 08:35:07;;;;;;;9.10;5.00;;;;;;;-1.02;83.28;100774.48;109222;1276;138026;-59
2022/03/01 08:37:36;;;;;;;9.50;4.70;;;;;;;-1.02;83.14;100767.39;109319;1275;22468;-60
2022/03/01 08:40:05;;;;;;;9.60;5.50;;;;;;;-1.04;83.13;100771.42;109221;1274;138163;-60
2022/03/01 08:42:33;;;;;;;10.90;5.40;;;;;;;-1.05;83.25;100769.97;109256;1274;22480;-59
2022/03/01 08:45:03;;;;;;;12.00;6.20;;;;;;;-1.06;83.16;100772.87;109308;1274;22542;-59
2022/03/01 08:47:38;;;;;;;11.70;5.60;;;;;;;-1.05;83.20;100773.54;109244;1275;139268;-59
2022/03/01 08:50:09;;;;;;;10.90;6.30;;;;;;;-1.04;83.51;100773.59;109342;1275;22462;-59
2022/03/01 08:53:00;;;;;;;9.80;5.40;;;;;;;-1.01;83.24;100772.04;109230;1276;140292;-59
2022/03/01 08:55:28;;;;;;;9.40;5.10;;;;;;;-1.00;83.27;100768.49;109340;1275;22428;-59
2022/03/01 08:58:00;;;;;;;8.20;4.60;;;;;;;-0.98;83.46;100768.15;109180;1275;138258;-59
2022/03/01 09:00:28;;;;;;;9.70;5.30;;;;;;;-0.97;83.30;100771.57;109161;1277;23157;-58
2022/03/01 09:02:59;;;;;;;7.00;4.50;;;;;;;-0.96;83.28;100771.20;109157;1277;22446;-59
2022/03/01 09:05:27;;;;;;;7.00;5.20;;;;;;;-0.97;83.31;100769.48;109121;1276;138306;-59
2022/03/01 09:07:55;;;;;;;9.50;5.70;;;;;;;-0.97;83.33;100771.07;109327;1275;22257;-59
2022/03/01 09:10:26;;;;;;;9.40;5.20;;;;;;;-0.96;83.54;100765.06;109124;1277;138380;-60
2022/03/01 09:12:59;;;;;;;7.80;4.50;;;;;;;-0.94;83.76;100770.91;109295;1276;22534;-60
2022/03/01 09:15:46;;;;;;;8.00;4.80;;;;;;;-0.93;83.44;100766.70;109322;1275;23267;-60
2022/03/01 09:18:14;;;;;;;10.00;5.80;;;;;;;-0.92;83.57;100767.95;109072;1277;138995;-60
2022/03/01 09:20:45;;;;;;;7.60;5.00;;;;;;;-0.91;83.68;100765.88;109158;1276;22482;-60
2022/03/01 09:23:13;;;;;;;7.00;4.70;;;;;;;-0.87;83.55;100761.71;109156;1274;138130;-59
2022/03/01 09:25:41;;;;;;;8.10;4.70;;;;;;;-0.83;83.83;100761.99;109325;1275;22294;-59
2022/03/01 09:28:09;;;;;;;6.40;4.00;;;;;;;-0.80;83.65;100759.75;109202;1274;139124;-60
2022/03/01 09:30:40;;;;;;;7.10;4.80;;;;;;;-0.78;83.65;100758.77;109336;1275;23166;-59
2022/03/01 09:33:08;;;;;;;7.10;4.20;;;;;;;-0.75;83.73;100754.92;109260;1275;22503;-59
2022/03/01 09:35:36;;;;;;;7.50;4.80;;;;;;;-0.73;83.80;100752.00;109184;1275;139612;-58
2022/03/01 09:38:04;;;;;;;6.80;4.50;;;;;;;-0.69;83.41;100747.86;109316;1275;22409;-59
2022/03/01 09:40:33;;;;;;;8.20;5.40;;;;;;;-0.66;83.44;100747.79;109203;1274;138204;-59
2022/03/01 09:43:01;;;;;;;7.20;5.00;;;;;;;-0.65;83.11;100743.39;109280;1275;23335;-59
2022/03/01 09:45:30;;;;;;;6.50;4.20;;;;;;;-0.62;83.29;100746.19;109330;1275;23246;-59
2022/03/01 09:47:58;;;;;;;7.10;4.70;;;;;;;-0.65;83.30;100739.09;109209;1276;140567;-59
2022/03/01 09:50:30;;;;;;;8.10;5.20;;;;;;;-0.61;83.08;100742.95;109110;1276;22396;-59
2022/03/01 09:52:59;;;;;;;8.10;4.40;;;;;;;-0.62;83.44;100739.77;109222;1274;138052;-59
2022/03/01 09:55:27;;;;;;;8.60;5.30;;;;;;;-0.63;83.15;100735.71;109278;1275;23212;-59
2022/03/01 09:57:58;;;;;;;8.50;4.90;;;;;;;-0.58;83.10;100737.16;109161;1276;139187;-59
2022/03/01 10:00:27;;;;;;;10.20;5.00;;;;;;;-0.55;83.14;100734.52;109247;1275;23164;-58
2022/03/01 10:02:57;;;;;;;12.00;5.00;;;;;;;-0.52;83.31;100737.02;109347;1274;23672;-59
2022/03/01 10:05:51;;;;;;;8.00;4.60;;;;;;;-0.51;82.92;100731.38;109073;1276;139926;-58
2022/03/01 10:08:22;;;;;;;10.70;5.20;;;;;;;-0.49;82.73;100731.56;109291;1276;22489;-60
2022/03/01 10:10:52;;;;;;;9.10;4.60;;;;;;;-0.48;82.90;100726.31;109190;1276;138598;-58
2022/03/01 10:13:28;;;;;;;6.80;4.30;;;;;;;-0.45;83.02;100730.80;109365;1275;22428;-59
2022/03/01 10:16:05;;;;;;;7.40;4.90;;;;;;;-0.42;82.75;100727.78;109201;1275;139424;-59
2022/03/01 10:18:48;;;;;;;9.80;4.90;;;;;;;-0.40;82.59;100729.14;109301;1276;22496;-58
2022/03/01 10:21:21;;;;;;;7.30;4.50;;;;;;;-0.37;82.63;100726.55;109262;1276;22479;-59
2022/03/01 10:23:51;;;;;;;10.80;5.40;;;;;;;-0.37;82.33;100724.78;109163;1274;138829;-59
2022/03/01 10:26:21;;;;;;;8.60;5.40;;;;;;;-0.36;82.58;100722.71;109296;1275;22475;-60
2022/03/01 10:28:50;;;;;;;8.90;5.00;;;;;;;-0.34;82.34;100720.75;109261;1274;137960;-59
2022/03/01 10:31:24;;;;;;;8.90;5.70;;;;;;;-0.33;82.39;100717.11;109310;1276;22436;-58
2022/03/01 10:33:56;;;;;;;10.30;5.60;;;;;;;-0.36;82.48;100718.80;109365;1275;22557;-59
2022/03/01 10:36:26;;;;;;;12.10;5.70;;;;;;;-0.38;82.32;100716.50;109215;1275;138383;-58
2022/03/01 10:39:05;;;;;;;8.40;5.60;;;;;;;-0.37;82.53;100715.10;109284;1276;22465;-59
2022/03/01 10:41:35;;;;;;;11.20;5.70;;;;;;;-0.36;82.39;100717.69;109132;1276;139371;-59
2022/03/01 10:44:04;;;;;;;9.60;6.00;;;;;;;-0.36;82.55;100711.67;109363;1275;23489;-59
2022/03/01 10:46:43;;;;;;;11.00;6.10;;;;;;;-0.37;82.56;100704.89;109175;1274;138139;-59
2022/03/01 10:49:13;;;;;;;9.70;5.60;;;;;;;-0.34;82.37;100704.33;109319;1275;22496;-59
2022/03/01 10:51:51;;;;;;;11.60;7.00;;;;;;;-0.31;82.29;100703.86;109329;1276;22551;-59
2022/03/01 10:54:31;;;;;;;8.70;6.10;;;;;;;-0.29;82.31;100702.73;109202;1276;138534;-58
2022/03/01 10:57:02;;;;;;;9.70;6.10;;;;;;;-0.25;82.42;100701.80;109306;1275;22536;-59
2022/03/01 10:59:31;;;;;;;11.30;6.80;;;;;;;-0.22;82.42;100702.17;109210;1276;138075;-60
2022/03/01 11:02:04;;;;;;;11.20;6.30;;;;;;;-0.21;82.25;100703.52;109145;1277;22492;-59
2022/03/01 11:04:33;;;;;;;13.20;7.30;;;;;;;-0.19;82.18;100696.89;109189;1274;139932;-60
2022/03/01 11:07:04;;;;;;;11.00;6.10;;;;;;;-0.16;82.03;100692.84;109200;1276;22428;-59
2022/03/01 11:09:33;;;;;;;10.60;6.60;;;;;;;-0.11;82.21;100690.63;109325;1275;22674;-60
2022/03/01 11:12:04;;;;;;;9.90;5.70;;;;;;;-0.05;82.09;100687.45;109071;1276;139086;-60
2022/03/01 11:15:03;;;;;;;10.00;6.10;;;;;;;0.00;82.15;100691.95;109288;1275;22493;-60
2022/03/01 11:17:43;;;;;;;11.10;6.20;;;;;;;0.04;81.66;100688.48;109097;1276;138352;-59
2022/03/01 11:20:27;;;;;;;9.00;6.00;;;;;;;0.07;82.02;100683.34;109203;1277;22491;-60
2022/03/01 11:23:02;;;;;;;11.60;7.10;;;;;;;0.11;81.72;100683.30;109003;1277;138326;-59
2022/03/01 11:25:36;;;;;;;11.10;6.70;;;;;;;0.14;81.78;100682.23;109062;1277;23332;-59
2022/03/01 11:28:06;;;;;;;8.40;5.10;;;;;;;0.18;81.61;100683.27;108997;1277;139364;-59